Time;durP1;ratioP1;P1;durP2;ratioP2;P2;SDS_P1;SDS_P2;PMS_P1;PMS_P2;Temp;Humidity;BMP_temperature;BMP_pressure;BME280_temperature;BME280_humidity;BME280_pressure;Samples;Min_cycle;Max_cycle;Signal;HPM_P1;HPM_P2
2021/08/21 00:00:15;;;;;;;11.93;10.90;;;18.50;99.90;;;;;;2630602;47;20155;-80
2021/08/21 00:02:44;;;;;;;11.90;10.68;;;18.50;99.90;;;;;;2630548;47;20189;-79
2021/08/21 00:05:13;;;;;;;10.65;9.55;;;18.60;99.90;;;;;;2630210;47;20147;-81
2021/08/21 00:07:42;;;;;;;10.50;9.48;;;18.70;99.90;;;;;;2630637;54;20177;-81
2021/08/21 00:10:24;;;;;;;12.88;10.45;;;18.70;99.90;;;;;;2630613;47;20185;-80
2021/08/21 00:12:55;;;;;;;11.20;10.10;;;18.80;99.90;;;;;;2630457;47;20173;-80
2021/08/21 00:15:24;;;;;;;10.23;9.27;;;18.70;99.90;;;;;;2630378;47;20133;-80
2021/08/21 00:17:53;;;;;;;9.18;8.38;;;18.60;99.90;;;;;;2630590;54;20132;-81
2021/08/21 00:20:22;;;;;;;10.98;9.70;;;18.60;99.90;;;;;;2630556;47;20267;-80
2021/08/21 00:22:51;;;;;;;10.68;9.75;;;18.60;99.90;;;;;;2630453;47;20149;-81
2021/08/21 00:25:20;;;;;;;10.23;9.35;;;18.50;99.90;;;;;;2630162;47;20134;-81
2021/08/21 00:27:49;;;;;;;11.13;10.13;;;18.50;99.90;;;;;;2630542;47;20134;-81
2021/08/21 00:30:21;;;;;;;11.45;10.35;;;18.50;99.90;;;;;;2630448;47;20155;-80
2021/08/21 00:32:51;;;;;;;10.75;9.75;;;18.50;99.90;;;;;;2631434;46;20214;-80
2021/08/21 00:35:21;;;;;;;9.85;9.02;;;18.50;99.90;;;;;;2630090;47;20478;-81
2021/08/21 00:37:50;;;;;;;10.88;9.88;;;18.50;99.90;;;;;;2632932;39;20848;-80
2021/08/21 00:40:19;;;;;;;12.73;10.40;;;18.60;99.90;;;;;;2631063;54;20173;-79
2021/08/21 00:42:48;;;;;;;12.10;11.00;;;18.60;99.90;;;;;;2631373;54;20161;-80
2021/08/21 00:45:20;;;;;;;12.32;11.32;;;18.60;99.90;;;;;;2631241;54;20275;-79
2021/08/21 00:47:50;;;;;;;11.57;10.57;;;18.50;99.90;;;;;;2631486;47;20137;-79
2021/08/21 00:50:18;;;;;;;10.85;9.95;;;18.50;99.90;;;;;;2631445;54;20136;-80
2021/08/21 00:52:47;;;;;;;14.68;10.80;;;18.50;99.90;;;;;;2631263;47;20168;-80
2021/08/21 00:55:17;;;;;;;11.95;10.80;;;18.40;99.90;;;;;;2631234;54;20130;-80
2021/08/21 00:57:46;;;;;;;11.75;10.55;;;18.40;99.90;;;;;;2631233;51;20148;-81
2021/08/21 01:00:16;;;;;;;11.60;10.52;;;18.50;99.90;;;;;;2630913;54;20169;-81
2021/08/21 01:02:47;;;;;;;12.05;10.90;;;18.60;99.90;;;;;;2630857;46;20196;-79
2021/08/21 01:05:19;;;;;;;12.70;10.30;;;18.70;99.90;;;;;;2630989;47;20916;-80
2021/08/21 01:07:49;;;;;;;11.13;10.20;;;18.60;99.90;;;;;;2631277;47;20177;-80
2021/08/21 01:10:22;;;;;;;10.73;9.73;;;18.50;99.90;;;;;;2631174;46;20153;-81
2021/08/21 01:12:56;;;;;;;14.15;11.02;;;18.50;99.90;;;;;;2631064;54;20184;-80
2021/08/21 01:15:27;;;;;;;12.10;10.90;;;18.50;99.90;;;;;;2637517;39;20860;-81
2021/08/21 01:18:10;;;;;;;11.90;10.80;;;18.40;99.90;;;;;;2631133;47;20142;-80
2021/08/21 01:20:39;;;;;;;11.70;10.50;;;18.40;99.90;;;;;;2631416;54;20939;-80
2021/08/21 01:23:10;;;;;;;11.25;10.23;;;18.30;99.90;;;;;;2631042;54;20177;-80
2021/08/21 01:25:44;;;;;;;12.68;11.63;;;18.30;99.90;;;;;;2640483;39;20847;-79
2021/08/21 01:28:18;;;;;;;14.52;13.07;;;18.30;99.90;;;;;;2631076;54;20161;-79
2021/08/21 01:31:06;;;;;;;12.00;11.00;;;18.30;99.90;;;;;;2631181;54;20145;-79
2021/08/21 01:33:42;;;;;;;14.93;13.48;;;18.20;99.90;;;;;;2631115;54;20272;-79
2021/08/21 01:36:11;;;;;;;13.25;11.98;;;18.20;99.90;;;;;;2630950;54;20180;-80
2021/08/21 01:38:59;;;;;;;12.65;11.55;;;18.30;99.90;;;;;;2630913;54;20162;-80
2021/08/21 01:41:44;;;;;;;14.63;13.23;;;18.40;99.90;;;;;;2631171;46;20130;-80
2021/08/21 01:44:19;;;;;;;15.25;13.73;;;18.50;99.90;;;;;;2631123;46;20180;-79
2021/08/21 01:46:49;;;;;;;17.05;14.63;;;18.50;99.90;;;;;;2631047;47;20132;-80
2021/08/21 01:49:19;;;;;;;14.32;12.75;;;18.50;99.90;;;;;;2631180;46;20132;-80
2021/08/21 01:51:53;;;;;;;12.80;11.70;;;18.40;99.90;;;;;;2637833;31;20950;-80
2021/08/21 01:54:28;;;;;;;13.18;11.85;;;18.40;99.90;;;;;;2630838;46;20264;-78
2021/08/21 01:57:00;;;;;;;14.80;13.32;;;18.20;99.90;;;;;;2631154;47;20122;-80
2021/08/21 02:00:08;;;;;;;14.40;13.00;;;18.20;99.90;;;;;;2630714;47;20348;-80
2021/08/21 02:02:44;;;;;;;13.63;12.43;;;18.10;99.90;;;;;;2631164;46;20165;-80
2021/08/21 02:05:29;;;;;;;13.38;12.25;;;18.10;99.90;;;;;;2630988;47;20121;-80
2021/08/21 02:07:59;;;;;;;13.70;12.27;;;18.10;99.90;;;;;;2631011;47;20157;-80
2021/08/21 02:10:28;;;;;;;14.27;12.95;;;18.10;99.90;;;;;;2630965;47;20197;-80
2021/08/21 02:12:57;;;;;;;13.00;11.82;;;18.20;99.90;;;;;;2630937;54;20173;-79
2021/08/21 02:15:32;;;;;;;13.90;12.60;;;18.20;99.90;;;;;;2630933;47;20172;-79
2021/08/21 02:18:03;;;;;;;14.63;13.23;;;18.30;99.90;;;;;;2631150;46;20165;-80
2021/08/21 02:20:52;;;;;;;16.92;14.60;;;18.20;99.90;;;;;;2630951;47;20940;-80
2021/08/21 02:23:24;;;;;;;15.55;14.15;;;17.80;99.90;;;;;;2631034;54;20872;-81
2021/08/21 02:25:56;;;;;;;15.90;14.40;;;17.60;99.90;;;;;;2639132;39;20888;-79
2021/08/21 02:28:30;;;;;;;16.08;14.57;;;17.80;99.90;;;;;;2631183;47;20183;-80
2021/08/21 02:31:04;;;;;;;16.55;14.85;;;17.80;99.90;;;;;;2631073;47;20145;-80
2021/08/21 02:33:34;;;;;;;15.38;13.88;;;17.70;99.90;;;;;;2630983;46;20157;-79
2021/08/21 02:36:02;;;;;;;15.35;13.80;;;17.50;99.90;;;;;;2631067;47;20145;-79
2021/08/21 02:38:31;;;;;;;14.95;13.55;;;17.50;99.90;;;;;;2630942;47;20141;-81
2021/08/21 02:41:00;;;;;;;15.50;14.05;;;17.60;99.90;;;;;;2630808;54;20138;-80
2021/08/21 02:43:29;;;;;;;15.60;14.13;;;17.70;99.90;;;;;;2631082;54;20180;-80
2021/08/21 02:45:58;;;;;;;15.32;13.23;;;17.70;99.90;;;;;;2631023;47;20152;-81
2021/08/21 02:48:30;;;;;;;15.93;14.27;;;17.70;99.90;;;;;;2631156;47;20189;-80
2021/08/21 02:50:58;;;;;;;16.05;14.63;;;17.40;99.90;;;;;;2631085;47;20129;-81
2021/08/21 02:53:27;;;;;;;19.88;13.68;;;17.20;99.90;;;;;;2630766;47;20165;-80
2021/08/21 02:56:00;;;;;;;15.90;14.55;;;16.90;99.90;;;;;;2630738;54;20149;-80
2021/08/21 02:58:29;;;;;;;15.02;13.57;;;16.70;99.90;;;;;;2630833;47;20169;-79
2021/08/21 03:00:59;;;;;;;17.02;13.93;;;16.80;99.90;;;;;;2630894;54;20185;-79
2021/08/21 03:03:32;;;;;;;18.38;14.52;;;17.00;99.90;;;;;;2630588;47;20156;-80
2021/08/21 03:06:01;;;;;;;16.23;14.63;;;17.00;99.90;;;;;;2630702;54;20151;-80
2021/08/21 03:08:30;;;;;;;15.93;14.40;;;17.00;99.90;;;;;;2630818;47;20129;-80
2021/08/21 03:11:00;;;;;;;14.85;13.45;;;17.10;99.90;;;;;;2630895;47;20185;-80
2021/08/21 03:13:40;;;;;;;15.85;13.57;;;17.20;99.90;;;;;;2630894;47;20195;-81
2021/08/21 03:16:10;;;;;;;14.00;12.60;;;17.30;99.90;;;;;;2630555;54;20218;-80
2021/08/21 03:18:42;;;;;;;15.27;13.20;;;17.30;99.90;;;;;;2630736;47;20158;-80
2021/08/21 03:21:11;;;;;;;15.55;13.60;;;17.40;99.90;;;;;;2630770;47;20137;-80
2021/08/21 03:23:40;;;;;;;15.80;14.13;;;17.60;99.90;;;;;;2630734;47;20180;-80
2021/08/21 03:26:09;;;;;;;15.07;13.68;;;17.40;99.90;;;;;;2630590;47;20125;-81
2021/08/21 03:28:41;;;;;;;15.13;13.73;;;17.40;99.90;;;;;;2630751;54;20181;-81
2021/08/21 03:31:10;;;;;;;13.38;12.07;;;17.10;99.90;;;;;;2630994;47;20154;-78
2021/08/21 03:33:42;;;;;;;13.07;11.82;;;17.10;99.90;;;;;;2630666;54;20943;-78
2021/08/21 03:36:10;;;;;;;15.20;13.70;;;16.90;99.90;;;;;;2636131;39;20831;-79
2021/08/21 03:38:42;;;;;;;13.82;12.50;;;16.90;99.90;;;;;;2630751;47;20141;-80
2021/08/21 03:41:17;;;;;;;14.73;13.32;;;17.00;99.90;;;;;;2630664;47;20129;-79
2021/08/21 03:43:57;;;;;;;13.43;12.02;;;17.00;99.90;;;;;;2630611;54;20183;-80
2021/08/21 03:46:26;;;;;;;14.60;13.02;;;17.30;99.90;;;;;;2630607;47;20889;-79
2021/08/21 03:48:57;;;;;;;14.43;13.00;;;17.30;99.90;;;;;;2631193;39;20764;-80
2021/08/21 03:51:29;;;;;;;16.33;13.68;;;17.20;99.90;;;;;;2630862;46;20145;-80
2021/08/21 03:53:58;;;;;;;14.50;13.10;;;17.00;99.90;;;;;;2630820;47;20216;-78
2021/08/21 03:56:27;;;;;;;14.20;12.80;;;17.00;99.90;;;;;;2630573;54;20931;-80
2021/08/21 03:59:00;;;;;;;14.00;12.25;;;17.00;99.90;;;;;;2630734;47;20193;-81
2021/08/21 04:01:29;;;;;;;15.65;13.93;;;17.00;99.90;;;;;;2630622;54;20197;-81
2021/08/21 04:04:08;;;;;;;13.13;11.93;;;16.90;99.90;;;;;;2630641;47;20156;-82
2021/08/21 04:06:40;;;;;;;14.20;12.73;;;17.10;99.90;;;;;;2630556;47;20156;-80
2021/08/21 04:09:13;;;;;;;15.80;12.68;;;17.30;99.90;;;;;;2636516;39;20855;-80
2021/08/21 04:11:44;;;;;;;14.80;13.30;;;17.30;99.90;;;;;;2630761;47;20133;-79
2021/08/21 04:14:17;;;;;;;13.77;12.35;;;17.30;99.90;;;;;;2630930;47;20207;-80
2021/08/21 04:16:46;;;;;;;14.93;13.40;;;17.40;99.90;;;;;;2631411;46;20133;-80
2021/08/21 04:19:19;;;;;;;14.10;12.70;;;17.40;99.90;;;;;;2631374;54;20214;-80
2021/08/21 04:21:49;;;;;;;15.25;13.75;;;17.50;99.90;;;;;;2631324;46;20142;-80
2021/08/21 04:24:28;;;;;;;16.02;13.93;;;17.30;99.90;;;;;;2630886;46;20188;-81
2021/08/21 04:27:03;;;;;;;15.30;13.73;;;17.20;99.90;;;;;;2631377;46;20132;-80
2021/08/21 04:29:35;;;;;;;14.13;12.80;;;17.20;99.90;;;;;;2631387;54;20164;-79
2021/08/21 04:32:04;;;;;;;14.43;12.52;;;17.40;99.90;;;;;;2631331;54;20180;-80
2021/08/21 04:34:36;;;;;;;14.15;12.23;;;17.40;99.90;;;;;;2631270;47;20164;-80
2021/08/21 04:37:12;;;;;;;15.10;13.60;;;17.50;99.90;;;;;;2631382;47;20145;-81
2021/08/21 04:39:44;;;;;;;15.05;13.40;;;17.40;99.90;;;;;;2631328;47;20174;-80
2021/08/21 04:42:17;;;;;;;16.00;14.48;;;17.40;99.90;;;;;;2631322;54;20142;-81
2021/08/21 04:44:46;;;;;;;15.13;13.65;;;17.40;99.90;;;;;;2631144;46;20133;-80
2021/08/21 04:47:16;;;;;;;15.02;13.18;;;17.50;99.90;;;;;;2631349;54;20172;-79
2021/08/21 04:49:50;;;;;;;16.40;14.73;;;17.50;99.90;;;;;;2630708;54;20141;-80
2021/08/21 04:52:19;;;;;;;17.70;16.05;;;17.40;99.90;;;;;;2630706;47;20152;-80
2021/08/21 04:54:48;;;;;;;16.33;14.73;;;17.40;99.90;;;;;;2628017;54;20992;-77
2021/08/21 04:57:18;;;;;;;17.10;15.38;;;17.40;99.90;;;;;;2631295;46;20284;-79
2021/08/21 04:59:51;;;;;;;17.85;16.13;;;17.40;99.90;;;;;;2631182;47;20137;-79
2021/08/21 05:02:20;;;;;;;19.30;17.30;;;17.20;99.90;;;;;;2631691;46;20141;-78
2021/08/21 05:04:51;;;;;;;18.50;16.48;;;17.20;99.90;;;;;;2631118;54;20184;-78
2021/08/21 05:07:20;;;;;;;20.27;17.98;;;17.00;99.90;;;;;;2631313;54;20176;-81
2021/08/21 05:09:51;;;;;;;17.95;16.02;;;16.80;99.90;;;;;;2631233;54;20153;-80
2021/08/21 05:12:25;;;;;;;15.93;14.00;;;16.80;99.90;;;;;;2631427;46;20171;-81
2021/08/21 05:15:17;;;;;;;16.90;14.65;;;17.00;99.90;;;;;;2631140;54;20156;-80
2021/08/21 05:18:04;;;;;;;16.42;14.73;;;17.20;99.90;;;;;;2631096;54;20153;-80
2021/08/21 05:20:51;;;;;;;17.70;16.00;;;17.30;99.90;;;;;;2631448;46;20153;-80
2021/08/21 05:23:20;;;;;;;18.45;16.48;;;17.30;99.90;;;;;;2631651;46;20244;-82
2021/08/21 05:25:50;;;;;;;17.60;15.95;;;17.20;99.90;;;;;;2630857;54;20144;-79
2021/08/21 05:28:20;;;;;;;17.35;15.60;;;17.20;99.90;;;;;;2631307;46;20149;-80
2021/08/21 05:30:50;;;;;;;18.30;16.58;;;17.00;99.90;;;;;;2631294;46;20156;-84
2021/08/21 05:33:20;;;;;;;17.63;15.77;;;16.80;99.90;;;;;;2631047;54;20193;-81
2021/08/21 05:35:54;;;;;;;17.48;15.90;;;16.90;99.90;;;;;;2631307;47;20156;-82
2021/08/21 05:38:23;;;;;;;17.25;15.55;;;17.10;99.90;;;;;;2631415;47;20145;-82
2021/08/21 05:40:51;;;;;;;19.80;17.77;;;17.30;99.90;;;;;;2631172;54;20129;-81
2021/08/21 05:43:20;;;;;;;20.92;18.80;;;17.40;99.90;;;;;;2641144;39;20499;-81
2021/08/21 05:45:49;;;;;;;54.17;48.30;;;17.50;99.90;;;;;;2631296;54;20184;-83
2021/08/21 05:48:18;;;;;;;24.02;21.73;;;17.60;99.90;;;;;;2631190;46;20133;-80
2021/08/21 05:50:46;;;;;;;22.63;20.27;;;17.70;99.90;;;;;;2631386;54;20129;-82
2021/08/21 05:53:18;;;;;;;21.00;18.98;;;17.70;99.90;;;;;;2631073;47;20180;-80
2021/08/21 05:55:46;;;;;;;19.95;18.20;;;17.60;99.90;;;;;;2631285;46;20185;-81
2021/08/21 05:58:18;;;;;;;20.13;18.23;;;17.60;99.90;;;;;;2631311;47;20150;-78
2021/08/21 06:00:50;;;;;;;21.55;18.58;;;17.60;99.90;;;;;;2630582;54;20164;-77
2021/08/21 06:03:19;;;;;;;20.85;18.65;;;17.10;99.90;;;;;;2630812;47;20165;-80
2021/08/21 06:05:48;;;;;;;20.27;18.30;;;16.50;99.90;;;;;;2631275;46;20148;-79
2021/08/21 06:08:21;;;;;;;32.42;29.33;;;16.50;99.90;;;;;;2630644;54;20149;-80
2021/08/21 06:10:57;;;;;;;26.33;22.80;;;16.70;99.90;;;;;;2630649;47;20195;-80
2021/08/21 06:13:27;;;;;;;22.50;20.30;;;16.90;99.90;;;;;;2630875;46;20722;-80
2021/08/21 06:15:56;;;;;;;24.77;22.08;;;17.10;99.90;;;;;;2630916;47;20133;-77
2021/08/21 06:18:25;;;;;;;21.60;19.50;;;17.20;99.90;;;;;;2631326;46;20128;-79
2021/08/21 06:20:54;;;;;;;21.88;19.88;;;17.10;99.90;;;;;;2631423;46;20157;-83
2021/08/21 06:23:25;;;;;;;21.08;19.05;;;17.00;99.90;;;;;;2630854;54;20161;-79
2021/08/21 06:25:54;;;;;;;20.50;18.48;;;16.90;99.90;;;;;;2631564;39;20786;-79
2021/08/21 06:28:23;;;;;;;23.63;21.13;;;16.90;99.90;;;;;;2630964;47;20126;-78
2021/08/21 06:30:52;;;;;;;21.33;19.17;;;17.10;99.90;;;;;;2631791;46;20172;-81
2021/08/21 06:33:20;;;;;;;20.63;18.17;;;17.20;99.90;;;;;;2630520;47;20169;-81
2021/08/21 06:35:49;;;;;;;20.70;18.60;;;17.20;99.90;;;;;;2630783;46;20125;-80
2021/08/21 06:38:18;;;;;;;19.10;17.10;;;17.30;99.90;;;;;;2630769;47;20145;-78
2021/08/21 06:40:50;;;;;;;21.38;18.00;;;17.20;99.90;;;;;;2631067;46;20141;-79
2021/08/21 06:43:19;;;;;;;18.90;16.85;;;17.40;99.90;;;;;;2630260;54;20179;-79
2021/08/21 06:46:02;;;;;;;18.13;16.23;;;17.80;99.90;;;;;;2629538;46;20197;-77
2021/08/21 06:48:32;;;;;;;20.67;17.67;;;17.90;99.90;;;;;;2630654;47;20172;-80
2021/08/21 06:51:01;;;;;;;19.55;17.65;;;17.80;99.90;;;;;;2630965;47;20138;-77
2021/08/21 06:53:30;;;;;;;19.38;17.27;;;17.50;99.90;;;;;;2631044;46;20256;-76
2021/08/21 06:56:02;;;;;;;18.38;16.58;;;17.70;99.90;;;;;;2629804;47;20149;-75
2021/08/21 06:58:32;;;;;;;21.55;19.30;;;17.50;99.90;;;;;;2630439;54;20141;-78
2021/08/21 07:01:00;;;;;;;20.35;18.00;;;17.80;99.90;;;;;;2630290;54;20147;-81
2021/08/21 07:03:29;;;;;;;25.67;23.10;;;17.80;99.90;;;;;;2630338;47;20177;-76
2021/08/21 07:05:58;;;;;;;19.35;17.42;;;17.90;99.90;;;;;;2629776;54;20662;-76
2021/08/21 07:08:27;;;;;;;19.70;17.65;;;18.00;99.90;;;;;;2630263;47;20226;-78
2021/08/21 07:10:55;;;;;;;18.67;16.88;;;18.00;99.90;;;;;;2630506;47;20129;-80
2021/08/21 07:13:27;;;;;;;19.20;17.00;;;18.20;99.90;;;;;;2630074;47;20973;-76
2021/08/21 07:15:56;;;;;;;20.13;18.17;;;18.10;99.90;;;;;;2630581;46;21106;-76
2021/08/21 07:18:24;;;;;;;18.17;16.08;;;18.00;99.90;;;;;;2631575;39;20678;-77
2021/08/21 07:20:53;;;;;;;20.92;18.25;;;17.90;99.90;;;;;;2630657;54;20163;-79
2021/08/21 07:23:22;;;;;;;19.25;17.27;;;18.10;99.90;;;;;;2630031;54;20205;-80
2021/08/21 07:25:51;;;;;;;20.65;18.20;;;18.20;99.90;;;;;;2630045;47;20138;-76
2021/08/21 07:28:19;;;;;;;19.27;17.17;;;18.50;99.90;;;;;;2629765;47;20172;-78
2021/08/21 07:30:51;;;;;;;19.50;17.52;;;18.60;99.90;;;;;;2628798;47;20157;-77
2021/08/21 07:33:19;;;;;;;18.10;16.02;;;18.50;99.90;;;;;;2628816;54;20186;-79
2021/08/21 07:35:48;;;;;;;19.85;17.85;;;18.70;99.90;;;;;;2629149;47;20198;-79
2021/08/21 07:38:17;;;;;;;18.35;16.58;;;18.90;99.90;;;;;;2629429;47;20161;-76
2021/08/21 07:40:46;;;;;;;20.30;18.13;;;19.20;99.90;;;;;;2629623;47;20141;-77
2021/08/21 07:43:15;;;;;;;20.48;18.30;;;19.20;99.90;;;;;;2629602;54;20182;-78
2021/08/21 07:45:46;;;;;;;18.60;16.73;;;19.30;99.90;;;;;;2629690;47;20137;-78
2021/08/21 07:48:18;;;;;;;19.45;17.45;;;19.30;99.90;;;;;;2630249;54;20161;-79
2021/08/21 07:50:48;;;;;;;20.00;17.88;;;19.30;99.90;;;;;;2631021;47;20126;-77
2021/08/21 07:53:16;;;;;;;19.50;17.33;;;19.40;99.90;;;;;;2630466;54;20164;-80
2021/08/21 07:55:45;;;;;;;18.15;16.17;;;19.70;99.90;;;;;;2630106;47;20141;-78
2021/08/21 07:58:14;;;;;;;19.65;17.60;;;19.80;99.90;;;;;;2629677;54;20137;-77
2021/08/21 08:00:43;;;;;;;19.00;17.13;;;20.10;99.90;;;;;;2628821;47;20126;-76
2021/08/21 08:03:14;;;;;;;19.13;17.27;;;20.30;99.90;;;;;;2628187;47;20165;-75
2021/08/21 08:05:46;;;;;;;18.60;16.75;;;20.30;99.90;;;;;;2629809;54;20140;-77
2021/08/21 08:08:16;;;;;;;18.55;16.65;;;20.50;99.90;;;;;;2629445;54;20129;-78
2021/08/21 08:10:45;;;;;;;18.67;16.75;;;20.60;99.90;;;;;;2629187;47;20168;-76
2021/08/21 08:13:14;;;;;;;19.33;17.02;;;20.70;99.90;;;;;;2630397;54;20167;-81
2021/08/21 08:15:43;;;;;;;20.20;18.20;;;20.80;99.90;;;;;;2630788;47;20141;-80
2021/08/21 08:18:11;;;;;;;17.33;15.50;;;20.80;99.90;;;;;;2630568;54;20145;-77
2021/08/21 08:20:40;;;;;;;22.08;18.27;;;20.90;99.90;;;;;;2628604;47;20156;-80
2021/08/21 08:23:12;;;;;;;20.88;18.70;;;21.10;99.90;;;;;;2629459;47;20179;-77
2021/08/21 08:25:41;;;;;;;21.55;19.42;;;21.10;99.90;;;;;;2629522;47;20149;-75
2021/08/21 08:28:09;;;;;;;16.70;15.13;;;21.10;99.90;;;;;;2630313;47;20146;-78
2021/08/21 08:30:38;;;;;;;17.48;15.88;;;21.10;99.90;;;;;;2630498;54;20151;-79
2021/08/21 08:33:07;;;;;;;18.98;17.23;;;21.20;99.90;;;;;;2630024;47;20154;-75
2021/08/21 08:35:36;;;;;;;17.48;15.68;;;21.40;99.90;;;;;;2627222;54;20699;-79
2021/08/21 08:38:05;;;;;;;17.55;15.75;;;21.50;99.90;;;;;;2629358;54;20145;-81
2021/08/21 08:40:37;;;;;;;15.20;13.77;;;21.80;99.90;;;;;;2629785;47;20216;-80
2021/08/21 08:43:07;;;;;;;16.45;14.85;;;21.80;99.90;;;;;;2630351;47;20142;-80
2021/08/21 08:45:35;;;;;;;16.65;15.02;;;21.90;99.90;;;;;;2630005;47;20132;-79
2021/08/21 08:48:05;;;;;;;18.05;16.35;;;21.90;99.90;;;;;;2630068;47;20137;-84
2021/08/21 08:53:21;;;;;;;22.35;18.10;;;22.30;99.90;;;;;;2640588;53;30934;-81
2021/08/21 08:55:50;;;;;;;23.45;21.10;;;22.30;99.90;;;;;;2635384;46;20212;-81
2021/08/21 08:58:19;;;;;;;29.00;26.05;;;22.30;99.90;;;;;;2635277;46;20125;-81
2021/08/21 09:00:49;;;;;;;19.70;17.80;;;22.50;99.90;;;;;;2635568;46;20151;-80
2021/08/21 09:03:23;;;;;;;18.73;16.67;;;22.70;99.90;;;;;;2635044;54;20228;-78
2021/08/21 09:05:52;;;;;;;17.27;15.57;;;22.50;99.90;;;;;;2635168;54;20185;-80
2021/08/21 09:08:29;;;;;;;17.40;15.75;;;22.40;99.90;;;;;;2635804;46;20137;-81
2021/08/21 09:10:58;;;;;;;18.40;16.60;;;22.50;99.90;;;;;;2635329;54;20159;-80
2021/08/21 09:13:29;;;;;;;20.73;18.80;;;22.60;99.90;;;;;;2635359;46;20148;-78
2021/08/21 09:16:02;;;;;;;16.10;14.63;;;22.80;99.90;;;;;;2635271;54;20137;-79
2021/08/21 09:18:32;;;;;;;17.98;16.27;;;22.80;99.90;;;;;;2635464;46;20172;-80
2021/08/21 09:21:04;;;;;;;18.70;16.63;;;22.80;99.90;;;;;;2635260;54;20196;-79
2021/08/21 09:23:38;;;;;;;18.00;16.20;;;23.00;99.90;;;;;;2635602;46;20173;-79
2021/08/21 09:26:10;;;;;;;20.25;18.15;;;23.20;99.90;;;;;;2638023;38;20203;-80
2021/08/21 09:28:41;;;;;;;15.23;13.73;;;23.30;99.90;;;;;;2635568;46;20190;-81
2021/08/21 09:31:11;;;;;;;18.75;16.88;;;23.40;99.90;;;;;;2636399;46;20129;-80
2021/08/21 09:33:42;;;;;;;16.75;15.13;;;23.50;99.90;;;;;;2634782;46;20200;-81
2021/08/21 09:36:16;;;;;;;27.43;24.50;;;23.40;99.90;;;;;;2606106;46;20270;31
2021/08/21 09:38:47;;;;;;;26.70;24.00;;;23.40;99.90;;;;;;2655259;38;21160;31
2021/08/21 09:44:04;;;;;;;16.80;15.20;;;23.10;99.90;;;;;;2618094;46;20252;-82
2021/08/21 09:46:35;;;;;;;18.98;17.08;;;23.20;99.90;;;;;;2619220;46;20211;-81
2021/08/21 09:51:39;;;;;;;18.40;16.60;;;23.10;99.90;;;;;;2605885;46;20455;31
2021/08/21 09:56:49;;;;;;;17.05;14.45;;;22.90;99.90;;;;;;2606168;54;21410;31
2021/08/21 10:01:54;;;;;;;14.93;13.40;;;22.70;99.90;;;;;;2609121;38;21683;31
2021/08/21 10:07:08;;;;;;;14.57;13.25;;;22.60;99.90;;;;;;2602425;54;20190;31
2021/08/21 10:12:13;;;;;;;18.92;17.05;;;22.40;99.90;;;;;;2606891;54;20172;31
2021/08/21 10:25:26;;;;;;;18.60;16.15;;;22.60;99.90;;;;;;2604472;54;20200;31
2021/08/21 10:30:47;;;;;;;20.85;18.95;;;22.60;99.90;;;;;;2604225;54;21145;31
2021/08/21 10:33:16;;;;;;;15.57;14.07;;;22.60;99.90;;;;;;2603418;47;20608;31
2021/08/21 10:38:40;;;;;;;21.08;19.00;;;22.80;99.90;;;;;;2631528;54;20193;-77
2021/08/21 10:41:34;;;;;;;14.05;12.65;;;22.90;99.90;;;;;;2631622;46;20137;-80
2021/08/21 10:44:03;;;;;;;14.70;13.20;;;23.00;99.90;;;;;;2630448;54;20200;-79
2021/08/21 10:46:56;;;;;;;14.80;13.40;;;23.40;99.90;;;;;;2630846;54;20136;-78
2021/08/21 10:49:47;;;;;;;15.27;13.50;;;23.70;99.90;;;;;;2633461;39;20731;-79
2021/08/21 10:53:03;;;;;;;13.68;12.07;;;23.80;99.90;;;;;;2631173;47;20133;-80
2021/08/21 10:55:39;;;;;;;13.85;12.43;;;23.70;99.90;;;;;;2631543;46;20125;-80
2021/08/21 10:58:14;;;;;;;13.80;12.55;;;23.60;99.90;;;;;;2631409;46;20181;-80
2021/08/21 11:00:52;;;;;;;14.30;12.90;;;23.60;99.90;;;;;;2631314;54;20153;-81
2021/08/21 11:03:44;;;;;;;15.40;13.85;;;23.40;99.90;;;;;;2631228;46;20152;-80
2021/08/21 11:06:15;;;;;;;15.05;13.63;;;23.50;99.90;;;;;;2631013;47;20173;-80
2021/08/21 11:08:58;;;;;;;17.33;15.70;;;23.40;99.90;;;;;;2631416;46;20137;-79
2021/08/21 11:11:34;;;;;;;14.95;13.52;;;23.30;99.90;;;;;;2631282;46;20145;-79
2021/08/21 11:14:06;;;;;;;13.13;11.93;;;23.30;99.90;;;;;;2631147;47;20185;-79
2021/08/21 11:16:53;;;;;;;14.18;12.80;;;23.50;99.90;;;;;;2630858;54;20164;-81
2021/08/21 11:19:47;;;;;;;12.70;11.40;;;23.70;99.90;;;;;;2631427;46;20217;-80
2021/08/21 11:22:21;;;;;;;13.38;12.07;;;24.00;99.90;;;;;;2631834;46;20153;-80
2021/08/21 11:25:11;;;;;;;13.32;11.98;;;24.30;99.90;;;;;;2633778;39;20846;-82
2021/08/21 11:27:42;;;;;;;13.98;12.52;;;24.40;99.90;;;;;;2631024;54;20168;-79
2021/08/21 11:33:16;;;;;;;15.13;13.70;;;24.90;99.90;;;;;;2631517;54;20189;-78
2021/08/21 11:35:54;;;;;;;13.57;12.27;;;24.90;99.90;;;;;;2661476;39;20916;-80
2021/08/21 11:49:12;;;;;;;13.45;12.05;;;24.40;99.90;;;;;;2631569;54;20205;-81
2021/08/21 11:51:44;;;;;;;16.73;14.98;;;24.10;99.90;;;;;;2631449;47;20941;-81
2021/08/21 11:54:14;;;;;;;14.45;13.15;;;24.00;99.90;;;;;;2631748;46;20165;-80
2021/08/21 11:56:58;;;;;;;13.18;11.85;;;23.90;99.90;;;;;;2631480;46;20132;-79
2021/08/21 11:59:27;;;;;;;13.98;12.65;;;24.00;99.90;;;;;;2631591;54;20133;-86
2021/08/21 12:02:05;;;;;;;13.68;11.60;;;24.10;99.90;;;;;;2629341;54;20219;-81
2021/08/21 12:04:34;;;;;;;10.85;9.88;;;24.40;99.90;;;;;;2630758;54;20160;-82
2021/08/21 12:07:06;;;;;;;10.20;9.30;;;24.40;99.90;;;;;;2630949;47;20140;-81
2021/08/21 12:09:35;;;;;;;12.25;11.02;;;24.50;99.90;;;;;;2631336;47;20177;-81
2021/08/21 12:12:11;;;;;;;11.43;10.30;;;24.60;99.90;;;;;;2631092;54;20148;-81
2021/08/21 12:14:39;;;;;;;12.07;10.98;;;24.70;99.90;;;;;;2631089;47;20184;-82
2021/08/21 12:17:08;;;;;;;10.43;9.52;;;25.00;99.90;;;;;;2631171;54;20189;-81
2021/08/21 12:19:37;;;;;;;13.23;12.00;;;25.50;99.90;;;;;;2630665;54;20268;-80
2021/08/21 12:22:09;;;;;;;11.82;10.75;;;26.00;99.90;;;;;;2631151;47;20145;-81
2021/08/21 12:24:38;;;;;;;14.60;13.23;;;26.00;99.90;;;;;;2630057;46;20324;-81
2021/08/21 12:27:24;;;;;;;14.88;13.57;;;26.30;99.90;;;;;;2630769;54;20152;-81
2021/08/21 12:30:08;;;;;;;13.52;12.35;;;26.40;99.90;;;;;;2631002;54;20140;-80
2021/08/21 12:32:37;;;;;;;13.65;12.07;;;26.60;99.90;;;;;;2631024;47;20753;-80
2021/08/21 12:35:16;;;;;;;10.77;9.88;;;26.60;99.90;;;;;;2630743;47;20722;-79
2021/08/21 12:38:03;;;;;;;12.40;11.38;;;26.70;99.90;;;;;;2630923;47;20152;-79
2021/08/21 12:40:32;;;;;;;11.98;10.88;;;26.70;99.90;;;;;;2630806;47;20546;-80
2021/08/21 12:43:05;;;;;;;12.55;11.48;;;26.20;99.90;;;;;;2630828;46;20125;-79
2021/08/21 12:45:34;;;;;;;13.43;12.13;;;26.10;99.90;;;;;;2630825;54;20153;-79
2021/08/21 12:48:09;;;;;;;10.77;9.70;;;26.00;99.90;;;;;;2630899;47;20141;-80
2021/08/21 12:50:42;;;;;;;11.27;10.27;;;25.70;99.90;;;;;;2631005;47;20164;-79
2021/08/21 12:53:21;;;;;;;10.48;9.38;;;25.50;99.90;;;;;;2630710;47;20153;-81
2021/08/21 12:55:50;;;;;;;10.65;9.73;;;25.80;99.90;;;;;;2630836;54;20152;-80
2021/08/21 12:58:19;;;;;;;11.90;10.70;;;26.10;99.90;;;;;;2630409;54;20193;-79
2021/08/21 13:00:48;;;;;;;10.18;9.30;;;26.10;99.90;;;;;;2630280;54;20195;-80
2021/08/21 13:03:20;;;;;;;10.05;9.25;;;26.20;99.90;;;;;;2630832;47;20182;-80
2021/08/21 13:05:58;;;;;;;11.07;10.07;;;26.10;99.90;;;;;;2630821;47;20173;-81
2021/08/21 13:08:41;;;;;;;9.15;8.45;;;25.90;99.90;;;;;;2630645;47;20149;-81
2021/08/21 13:11:10;;;;;;;11.32;10.30;;;25.80;99.90;;;;;;2630907;54;20168;-80
2021/08/21 13:13:39;;;;;;;11.07;10.20;;;25.60;99.90;;;;;;2630915;47;20125;-80
2021/08/21 13:16:10;;;;;;;12.10;11.10;;;25.70;99.90;;;;;;2630643;54;20841;-80
2021/08/21 13:18:39;;;;;;;10.55;9.60;;;25.90;99.90;;;;;;2630850;47;20193;-81
2021/08/21 13:21:08;;;;;;;12.05;10.95;;;26.10;99.90;;;;;;2630387;47;20176;-81
2021/08/21 13:23:39;;;;;;;9.93;9.13;;;26.70;99.90;;;;;;2630849;47;20137;-80
2021/08/21 13:26:08;;;;;;;9.35;8.55;;;27.00;99.90;;;;;;2630565;47;20134;-79
2021/08/21 13:28:37;;;;;;;10.60;9.70;;;27.20;99.90;;;;;;2630820;54;20150;-81
2021/08/21 13:31:06;;;;;;;12.43;10.80;;;27.40;99.90;;;;;;2630700;54;20169;-80
2021/08/21 13:33:34;;;;;;;13.60;12.30;;;27.50;99.90;;;;;;2633167;39;20550;-81
2021/08/21 13:36:04;;;;;;;9.73;8.82;;;27.50;99.90;;;;;;2630435;47;20142;-80
2021/08/21 13:38:33;;;;;;;8.98;8.38;;;27.70;99.90;;;;;;2630898;54;20133;-81
2021/08/21 13:41:04;;;;;;;8.05;7.38;;;28.00;99.90;;;;;;2631348;47;20173;-81